Time,TemperatureF,DewpointF,PressureIn,WindDirection,WindDirectionDegrees,WindSpeedMPH,WindSpeedGustMPH,Humidity,HourlyPrecipIn,Conditions,Clouds,dailyrainin,SoftwareType,DateUTC
2013-04-12 00:00:00,35.5,32.3,30.01,ESE,120,6.0,6.0,88,0.00,,,0.29,WeatherDisplay:10.37,2013-04-12 04:00:00,
2013-04-12 00:05:00,35.6,32.4,30.01,ESE,115,2.3,2.3,88,0.00,RA,,0.00,WeatherDisplay:10.37,2013-04-12 04:05:00,
2013-04-12 00:10:00,35.7,32.8,30.00,ESE,108,4.6,4.6,89,0.00,,,0.00,WeatherDisplay:10.37,2013-04-12 04:10:00,
2013-04-12 00:15:00,35.7,33.1,30.00,ESE,115,4.0,4.0,90,0.00,,,0.00,WeatherDisplay:10.37,2013-04-12 04:15:00,
2013-04-12 00:20:00,35.8,33.4,30.00,East,97,2.0,2.0,91,0.00,,,0.00,WeatherDisplay:10.37,2013-04-12 04:20:00,
2013-04-12 00:25:00,35.8,33.4,30.00,East,96,5.0,5.0,91,0.00,,,0.00,WeatherDisplay:10.37,2013-04-12 04:25:00,
2013-04-12 00:30:00,35.8,33.4,30.00,ESE,117,6.0,6.0,91,0.00,,,0.00,WeatherDisplay:10.37,2013-04-12 04:30:00,
2013-04-12 00:35:00,35.8,33.4,30.00,ESE,110,5.8,5.8,91,0.00,,,0.00,WeatherDisplay:10.37,2013-04-12 04:35:00,
2013-04-12 00:40:00,35.7,33.3,30.00,East,98,3.5,3.5,91,0.00,,,0.00,WeatherDisplay:10.37,2013-04-12 04:40:00,
2013-04-12 00:45:00,35.7,33.3,30.00,East,93,4.0,4.0,91,0.00,,,0.00,WeatherDisplay:10.37,2013-04-12 04:45:00,
2013-04-12 00:50:00,35.6,33.2,29.99,ESE,107,4.6,4.6,91,0.00,,,0.00,WeatherDisplay:10.37,2013-04-12 04:50:00,
2013-04-12 00:55:00,35.6,33.2,29.98,East,93,4.6,4.6,91,0.00,,,0.00,WeatherDisplay:10.37,2013-04-12 04:55:00,
2013-04-12 01:00:00,35.5,33.1,29.97,ESE,114,2.3,2.3,91,0.00,,,0.00,WeatherDisplay:10.37,2013-04-12 05:00:00,
2013-04-12 01:05:00,35.4,33.0,29.96,East,90,4.0,4.6,91,0.00,,,0.00,WeatherDisplay:10.37,2013-04-12 05:05:00,
2013-04-12 01:10:00,35.4,33.0,29.96,East,91,9.0,9.0,91,0.00,,,0.00,WeatherDisplay:10.37,2013-04-12 05:10:00,
2013-04-12 01:15:00,35.4,32.8,29.96,SSE,148,4.6,4.6,90,0.00,,,0.00,WeatherDisplay:10.37,2013-04-12 05:15:00,
2013-04-12 01:20:00,35.3,32.7,29.97,SE,125,6.9,6.9,90,0.00,,,0.00,WeatherDisplay:10.37,2013-04-12 05:20:00,
2013-04-12 01:25:00,35.3,32.7,29.96,ESE,121,6.9,6.9,90,0.00,,,0.00,WeatherDisplay:10.37,2013-04-12 05:25:00,
2013-04-12 01:30:00,35.3,32.7,29.95,SE,125,4.6,4.6,90,0.00,,,0.00,WeatherDisplay:10.37,2013-04-12 05:30:00,
2013-04-12 01:35:00,35.3,32.7,29.95,SE,124,3.5,3.5,90,0.00,,,0.00,WeatherDisplay:10.37,2013-04-12 05:35:00,
2013-04-12 01:40:00,35.2,32.6,29.96,ESE,114,8.1,8.1,90,0.00,,,0.01,WeatherDisplay:10.37,2013-04-12 05:40:00,
2013-04-12 01:45:00,35.1,32.7,29.95,ENE,78,4.6,4.6,91,0.01,RA,,0.01,WeatherDisplay:10.37,2013-04-12 05:45:00,
2013-04-12 01:50:00,34.9,32.5,29.94,South,169,3.5,3.5,91,0.02,RA,,0.02,WeatherDisplay:10.37,2013-04-12 05:50:00,
2013-04-12 01:55:00,34.8,32.4,29.94,SE,138,3.5,3.5,91,0.02,RA,,0.02,WeatherDisplay:10.37,2013-04-12 05:55:00,
2013-04-12 02:00:00,34.6,32.2,29.93,East,86,6.9,6.9,91,0.02,,,0.02,WeatherDisplay:10.37,2013-04-12 06:00:00,
2013-04-12 02:05:00,34.5,32.1,29.92,SE,143,6.9,6.9,91,0.05,RA,,0.05,WeatherDisplay:10.37,2013-04-12 06:05:00,
2013-04-12 02:15:00,34.3,31.9,29.93,NNE,32,9.2,9.2,91,0.21,RA,,0.21,WeatherDisplay:10.37,2013-04-12 06:15:00,
2013-04-12 02:20:00,34.1,31.5,29.93,SSW,201,2.3,2.3,90,0.26,RA,,0.26,WeatherDisplay:10.37,2013-04-12 06:20:00,
2013-04-12 02:25:00,34.0,31.4,29.93,ESE,107,4.6,4.6,90,0.26,RA,,0.26,WeatherDisplay:10.37,2013-04-12 06:25:00,
2013-04-12 02:30:00,34.0,31.4,29.92,ESE,113,5.8,5.8,90,0.26,,,0.26,WeatherDisplay:10.37,2013-04-12 06:30:00,
2013-04-12 02:35:00,34.0,31.1,29.91,East,98,6.9,6.9,89,0.26,,,0.26,WeatherDisplay:10.37,2013-04-12 06:35:00,
2013-04-12 02:40:00,33.9,31.0,29.91,ESE,115,1.1,1.1,89,0.26,,,0.26,WeatherDisplay:10.37,2013-04-12 06:40:00,
2013-04-12 02:45:00,34.0,31.1,29.90,SSE,153,8.1,8.1,89,0.25,,,0.26,WeatherDisplay:10.37,2013-04-12 06:45:00,
2013-04-12 02:50:00,34.0,31.1,29.90,ESE,110,5.8,5.8,89,0.24,,,0.26,WeatherDisplay:10.37,2013-04-12 06:50:00,
2013-04-12 02:55:00,34.0,31.1,29.89,NE,51,11.5,11.5,89,0.24,,,0.26,WeatherDisplay:10.37,2013-04-12 06:55:00,
2013-04-12 03:00:00,34.1,31.2,29.88,ENE,66,10.4,10.4,89,0.24,,,0.26,WeatherDisplay:10.37,2013-04-12 07:00:00,
2013-04-12 03:05:00,34.1,31.2,29.88,NE,51,6.9,6.9,89,0.21,,,0.26,WeatherDisplay:10.37,2013-04-12 07:05:00,
2013-04-12 03:10:00,34.1,31.2,29.87,East,90,10.4,10.4,89,0.20,,,0.26,WeatherDisplay:10.37,2013-04-12 07:10:00,
2013-04-12 03:15:00,34.1,31.2,29.87,ESE,105,5.8,5.8,89,0.05,,,0.26,WeatherDisplay:10.37,2013-04-12 07:15:00,
2013-04-12 03:20:00,34.1,31.2,29.86,ESE,121,5.8,5.8,89,0.00,,,0.26,WeatherDisplay:10.37,2013-04-12 07:20:00,
2013-04-12 03:25:00,34.1,31.2,29.86,ENE,75,5.8,5.8,89,0.00,,,0.26,WeatherDisplay:10.37,2013-04-12 07:25:00,
2013-04-12 03:30:00,34.1,31.2,29.86,SE,131,11.5,11.5,89,0.00,,,0.26,WeatherDisplay:10.37,2013-04-12 07:30:00,
2013-04-12 03:35:00,34.1,31.2,29.86,ESE,121,11.5,11.5,89,0.00,,,0.26,WeatherDisplay:10.37,2013-04-12 07:35:00,
2013-04-12 03:40:00,34.1,31.2,29.86,SE,129,6.0,6.0,89,0.00,,,0.26,WeatherDisplay:10.37,2013-04-12 07:40:00,
2013-04-12 03:45:00,34.1,31.5,29.85,ESE,117,6.9,6.9,90,0.00,,,0.26,WeatherDisplay:10.37,2013-04-12 07:45:00,
2013-04-12 03:50:00,34.1,31.2,29.84,ESE,119,10.4,10.4,89,0.00,,,0.26,WeatherDisplay:10.37,2013-04-12 07:50:00,
2013-04-12 03:55:00,34.1,31.5,29.85,ESE,103,9.2,9.2,90,0.00,,,0.26,WeatherDisplay:10.37,2013-04-12 07:55:00,
2013-04-12 04:00:00,34.1,31.5,29.84,SSW,195,8.1,8.1,90,0.00,,,0.26,WeatherDisplay:10.37,2013-04-12 08:00:00,
2013-04-12 04:05:00,34.0,31.4,29.84,ENE,76,3.5,3.5,90,0.00,,,0.26,WeatherDisplay:10.37,2013-04-12 08:05:00,
2013-04-12 04:10:00,34.0,31.4,29.84,East,92,10.4,10.4,90,0.00,,,0.26,WeatherDisplay:10.37,2013-04-12 08:10:00,
2013-04-12 04:15:00,33.9,31.3,29.83,SE,139,10.4,10.4,90,0.00,,,0.26,WeatherDisplay:10.37,2013-04-12 08:15:00,
2013-04-12 04:20:00,33.8,31.2,29.83,SE,126,7.0,7.0,90,0.00,,,0.26,WeatherDisplay:10.37,2013-04-12 08:20:00,
2013-04-12 04:25:00,33.8,30.9,29.83,East,97,5.8,5.8,89,0.00,,,0.26,WeatherDisplay:10.37,2013-04-12 08:25:00,
2013-04-12 04:30:00,33.8,30.9,29.83,SE,132,7.0,7.0,89,0.00,,,0.26,WeatherDisplay:10.37,2013-04-12 08:30:00,
2013-04-12 04:35:00,33.9,31.0,29.83,ESE,110,4.6,4.6,89,0.00,,,0.26,WeatherDisplay:10.37,2013-04-12 08:35:00,
2013-04-12 04:40:00,33.8,30.9,29.83,SE,142,5.0,5.0,89,0.00,,,0.26,WeatherDisplay:10.37,2013-04-12 08:40:00,
2013-04-12 04:45:00,33.9,31.0,29.83,NE,40,5.0,5.0,89,0.00,,,0.26,WeatherDisplay:10.37,2013-04-12 08:45:00,
2013-04-12 04:50:00,33.9,31.0,29.83,East,94,10.4,10.4,89,0.00,,,0.26,WeatherDisplay:10.37,2013-04-12 08:50:00,
2013-04-12 04:55:00,34.0,31.1,29.82,SE,137,3.5,3.5,89,0.00,,,0.26,WeatherDisplay:10.37,2013-04-12 08:55:00,
2013-04-12 05:00:00,34.0,31.1,29.82,ESE,114,7.0,7.0,89,0.00,,,0.26,WeatherDisplay:10.37,2013-04-12 09:00:00,
2013-04-12 05:05:00,34.0,31.1,29.81,SE,141,4.6,4.6,89,0.00,,,0.26,WeatherDisplay:10.37,2013-04-12 09:05:00,
2013-04-12 05:10:00,34.0,31.1,29.81,ESE,117,9.2,9.2,89,0.00,,,0.26,WeatherDisplay:10.37,2013-04-12 09:10:00,
2013-04-12 05:15:00,34.1,30.9,29.81,East,100,9.2,9.2,88,0.00,,,0.26,WeatherDisplay:10.37,2013-04-12 09:15:00,
2013-04-12 05:20:00,34.1,30.9,29.81,SSE,148,5.8,5.8,88,0.00,,,0.26,WeatherDisplay:10.37,2013-04-12 09:20:00,
2013-04-12 05:25:00,34.2,31.0,29.81,ESE,118,9.0,9.0,88,0.00,,,0.26,WeatherDisplay:10.37,2013-04-12 09:25:00,
2013-04-12 05:30:00,34.2,31.3,29.80,SE,138,3.5,3.5,89,0.00,,,0.26,WeatherDisplay:10.37,2013-04-12 09:30:00,
2013-04-12 05:35:00,34.2,31.3,29.80,WSW,249,9.2,9.2,89,0.00,,,0.26,WeatherDisplay:10.37,2013-04-12 09:35:00,
2013-04-12 05:40:00,34.2,31.0,29.79,SE,125,6.0,6.0,88,0.00,,,0.26,WeatherDisplay:10.37,2013-04-12 09:40:00,
2013-04-12 05:45:00,34.3,31.4,29.79,SE,139,8.1,8.1,89,0.00,,,0.26,WeatherDisplay:10.37,2013-04-12 09:45:00,
2013-04-12 05:50:00,34.3,31.4,29.79,East,98,3.5,3.5,89,0.00,,,0.26,WeatherDisplay:10.37,2013-04-12 09:50:00,
2013-04-12 05:55:00,34.4,31.5,29.79,ENE,66,6.9,6.9,89,0.00,,,0.26,WeatherDisplay:10.37,2013-04-12 09:55:00,
2013-04-12 06:00:00,34.5,31.6,29.79,East,82,5.8,5.8,89,0.00,,,0.26,WeatherDisplay:10.37,2013-04-12 10:00:00,
2013-04-12 06:05:00,34.5,31.6,29.78,SE,144,6.9,6.9,89,0.00,,,0.26,WeatherDisplay:10.37,2013-04-12 10:05:00,
2013-04-12 06:10:00,34.6,31.7,29.79,SE,146,6.0,6.0,89,0.00,,,0.26,WeatherDisplay:10.37,2013-04-12 10:10:00,
2013-04-12 06:15:00,34.7,31.8,29.78,SSE,163,5.8,5.8,89,0.00,,,0.26,WeatherDisplay:10.37,2013-04-12 10:15:00,
2013-04-12 06:20:00,34.7,31.8,29.78,NE,45,4.6,4.6,89,0.00,,,0.26,WeatherDisplay:10.37,2013-04-12 10:20:00,
2013-04-12 06:25:00,34.7,31.8,29.77,SE,128,3.5,3.5,89,0.00,,,0.26,WeatherDisplay:10.37,2013-04-12 10:25:00,
2013-04-12 06:30:00,34.8,31.9,29.77,ENE,57,2.3,2.3,89,0.00,,,0.26,WeatherDisplay:10.37,2013-04-12 10:30:00,
2013-04-12 06:35:00,34.8,31.9,29.77,South,170,3.5,3.5,89,0.00,,,0.26,WeatherDisplay:10.37,2013-04-12 10:35:00,
2013-04-12 06:40:00,34.9,32.0,29.77,East,91,5.8,5.8,89,0.00,,,0.26,WeatherDisplay:10.37,2013-04-12 10:40:00,
2013-04-12 06:45:00,34.9,32.0,29.77,ENE,78,6.0,6.0,89,0.01,RA,,0.27,WeatherDisplay:10.37,2013-04-12 10:45:00,
2013-04-12 06:50:00,35.0,32.1,29.77,ESE,108,7.0,7.0,89,0.01,RA,,0.27,WeatherDisplay:10.37,2013-04-12 10:50:00,
2013-04-12 06:55:00,35.0,32.1,29.76,ESE,105,5.8,5.8,89,0.01,,,0.27,WeatherDisplay:10.37,2013-04-12 10:55:00,
2013-04-12 07:00:00,35.0,32.1,29.75,ESE,103,2.0,2.0,89,0.01,,,0.27,WeatherDisplay:10.37,2013-04-12 11:00:00,
2013-04-12 07:05:00,35.0,32.1,29.75,SSE,159,6.9,6.9,89,0.01,,,0.27,WeatherDisplay:10.37,2013-04-12 11:05:00,
2013-04-12 07:10:00,35.1,32.2,29.75,SSE,150,4.6,4.6,89,0.01,,,0.27,WeatherDisplay:10.37,2013-04-12 11:10:00,
2013-04-12 07:15:00,35.1,32.2,29.74,ESE,120,3.5,3.5,89,0.01,,,0.27,WeatherDisplay:10.37,2013-04-12 11:15:00,
2013-04-12 07:20:00,35.2,32.3,29.74,ESE,120,8.1,8.1,89,0.02,RA,,0.28,WeatherDisplay:10.37,2013-04-12 11:20:00,
2013-04-12 07:25:00,35.2,32.3,29.73,ESE,119,1.1,1.1,89,0.02,RA,,0.28,WeatherDisplay:10.37,2013-04-12 11:25:00,
2013-04-12 07:30:00,35.2,32.3,29.73,ESE,111,5.8,5.8,89,0.03,RA,,0.29,WeatherDisplay:10.37,2013-04-12 11:30:00,
2013-04-12 07:36:00,35.2,32.0,29.73,South,169,4.6,4.6,88,0.04,RA,,0.30,WeatherDisplay:10.37,2013-04-12 11:36:00,
2013-04-12 07:41:00,35.3,32.1,29.72,ESE,122,3.5,3.5,88,0.04,RA,,0.30,WeatherDisplay:10.37,2013-04-12 11:41:00,
2013-04-12 07:46:00,35.3,32.1,29.72,SSE,153,4.6,4.6,88,0.04,RA,,0.31,WeatherDisplay:10.37,2013-04-12 11:46:00,
2013-04-12 07:51:00,35.4,32.2,29.72,East,96,2.3,2.3,88,0.04,RA,,0.31,WeatherDisplay:10.37,2013-04-12 11:51:00,
2013-04-12 07:56:00,35.5,32.0,29.71,SE,131,4.6,4.6,87,0.04,,,0.31,WeatherDisplay:10.37,2013-04-12 11:56:00,
2013-04-12 08:01:00,35.5,32.0,29.70,ESE,122,8.1,8.1,87,0.05,RA,,0.32,WeatherDisplay:10.37,2013-04-12 12:01:00,
2013-04-12 08:06:00,35.5,32.0,29.70,ESE,103,5.8,5.8,87,0.06,RA,,0.34,WeatherDisplay:10.37,2013-04-12 12:06:00,
2013-04-12 08:11:00,35.6,32.1,29.70,SSE,155,6.9,6.9,87,0.09,RA,,0.36,WeatherDisplay:10.37,2013-04-12 12:11:00,
2013-04-12 08:16:00,35.6,32.1,29.70,ESE,110,3.5,3.5,87,0.09,RA,,0.37,WeatherDisplay:10.37,2013-04-12 12:16:00,
2013-04-12 08:21:00,35.7,32.2,29.70,ESE,110,5.8,5.8,87,0.10,RA,,0.39,WeatherDisplay:10.37,2013-04-12 12:21:00,
2013-04-12 08:26:00,35.7,32.2,29.70,South,176,3.5,3.5,87,0.13,RA,,0.41,WeatherDisplay:10.37,2013-04-12 12:26:00,
2013-04-12 08:31:00,35.7,32.2,29.70,ESE,116,3.5,3.5,87,0.13,RA,,0.43,WeatherDisplay:10.37,2013-04-12 12:31:00,
2013-04-12 08:36:00,35.8,32.0,29.69,ESE,122,1.1,1.1,86,0.17,RA,,0.47,WeatherDisplay:10.37,2013-04-12 12:36:00,
2013-04-12 08:41:00,35.8,32.0,29.69,ESE,122,5.8,5.8,86,0.18,RA,,0.48,WeatherDisplay:10.37,2013-04-12 12:41:00,
2013-04-12 08:46:00,35.9,32.1,29.69,East,90,4.0,4.0,86,0.17,RA,,0.48,WeatherDisplay:10.37,2013-04-12 12:46:00,
2013-04-12 08:51:00,36.0,32.2,29.68,ESE,104,3.5,3.5,86,0.18,RA,,0.50,WeatherDisplay:10.37,2013-04-12 12:51:00,
2013-04-12 08:56:00,36.1,32.3,29.68,East,98,3.0,3.0,86,0.21,RA,,0.52,WeatherDisplay:10.37,2013-04-12 12:56:00,
2013-04-12 09:01:00,36.2,32.4,29.67,SE,137,4.6,4.6,86,0.21,RA,,0.54,WeatherDisplay:10.37,2013-04-12 13:01:00,
2013-04-12 09:06:00,36.3,32.5,29.67,ESE,114,3.5,3.5,86,0.24,RA,,0.57,WeatherDisplay:10.37,2013-04-12 13:06:00,
2013-04-12 09:11:00,36.4,32.3,29.68,East,101,2.3,2.3,85,0.23,RA,,0.59,WeatherDisplay:10.37,2013-04-12 13:11:00,
2013-04-12 09:16:00,36.6,32.5,29.68,ESE,105,2.3,2.3,85,0.24,RA,,0.60,WeatherDisplay:10.37,2013-04-12 13:16:00,
2013-04-12 09:21:00,36.7,32.6,29.69,ESE,105,2.3,2.3,85,0.23,RA,,0.61,WeatherDisplay:10.37,2013-04-12 13:21:00,
2013-04-12 09:26:00,36.8,32.7,29.67,SE,141,3.5,3.5,85,0.22,RA,,0.64,WeatherDisplay:10.37,2013-04-12 13:26:00,
2013-04-12 09:31:00,36.9,32.8,29.68,East,100,3.5,3.5,85,0.24,RA,,0.66,WeatherDisplay:10.37,2013-04-12 13:31:00,
2013-04-12 09:36:00,37.0,32.9,29.67,ESE,118,2.3,2.3,85,0.22,RA,,0.69,WeatherDisplay:10.37,2013-04-12 13:36:00,
2013-04-12 09:41:00,37.1,33.0,29.67,SE,133,3.5,3.5,85,0.22,RA,,0.71,WeatherDisplay:10.37,2013-04-12 13:41:00,
2013-04-12 09:46:00,37.2,33.1,29.68,SSE,161,1.1,0.0,85,0.24,RA,,0.72,WeatherDisplay:10.37,2013-04-12 13:46:00,
2013-04-12 09:51:00,37.4,33.3,29.67,ESE,104,3.5,3.5,85,0.23,RA,,0.73,WeatherDisplay:10.37,2013-04-12 13:51:00,
2013-04-12 09:56:00,37.5,33.4,29.66,ESE,118,4.6,4.6,85,0.23,RA,,0.76,WeatherDisplay:10.37,2013-04-12 13:56:00,
2013-04-12 10:01:00,37.8,33.7,29.66,SE,127,2.3,2.3,85,0.23,RA,,0.77,WeatherDisplay:10.37,2013-04-12 14:01:00,
2013-04-12 10:06:00,38.0,33.9,29.66,ESE,110,3.5,3.5,85,0.21,RA,,0.79,WeatherDisplay:10.37,2013-04-12 14:06:00,
2013-04-12 10:11:00,38.2,34.1,29.66,SE,145,3.5,3.5,85,0.21,RA,,0.80,WeatherDisplay:10.37,2013-04-12 14:11:00,
2013-04-12 10:16:00,38.4,34.3,29.66,ESE,115,3.5,3.5,85,0.21,RA,,0.81,WeatherDisplay:10.37,2013-04-12 14:16:00,
2013-04-12 10:21:00,38.6,34.5,29.66,ESE,105,3.5,3.5,85,0.19,RA,,0.81,WeatherDisplay:10.37,2013-04-12 14:21:00,
2013-04-12 10:26:00,38.9,35.1,29.66,SE,127,4.0,4.0,86,0.18,RA,,0.82,WeatherDisplay:10.37,2013-04-12 14:26:00,
2013-04-12 10:31:00,39.2,35.4,29.66,SE,132,3.5,3.5,86,0.16,RA,,0.83,WeatherDisplay:10.37,2013-04-12 14:31:00,
2013-04-12 10:36:00,39.3,35.5,29.65,SE,133,3.5,3.5,86,0.16,RA,,0.85,WeatherDisplay:10.37,2013-04-12 14:36:00,
2013-04-12 10:41:00,39.5,35.7,29.65,South,191,3.5,3.5,86,0.15,RA,,0.86,WeatherDisplay:10.37,2013-04-12 14:41:00,
2013-04-12 10:46:00,39.8,36.0,29.65,ESE,117,3.5,3.5,86,0.15,RA,,0.88,WeatherDisplay:10.37,2013-04-12 14:46:00,
2013-04-12 10:52:00,40.0,36.2,29.65,SE,129,3.5,3.5,86,0.16,RA,,0.89,WeatherDisplay:10.37,2013-04-12 14:52:00,
2013-04-12 10:57:00,40.4,36.5,29.65,SE,124,8.0,8.0,86,0.17,RA,,0.92,WeatherDisplay:10.37,2013-04-12 14:57:00,
2013-04-12 11:02:00,40.7,36.8,29.64,ESE,118,3.5,3.5,86,0.17,RA,,0.94,WeatherDisplay:10.37,2013-04-12 15:02:00,
2013-04-12 11:07:00,40.9,37.0,29.64,SE,134,8.1,8.1,86,0.16,RA,,0.95,WeatherDisplay:10.37,2013-04-12 15:07:00,
2013-04-12 11:12:00,41.0,37.1,29.64,SSE,148,11.5,11.5,86,0.17,RA,,0.97,WeatherDisplay:10.37,2013-04-12 15:12:00,
2013-04-12 11:17:00,41.1,36.9,29.64,SE,134,4.0,4.0,85,0.17,RA,,0.98,WeatherDisplay:10.37,2013-04-12 15:17:00,
2013-04-12 11:22:00,41.2,37.0,29.64,ESE,119,3.5,3.5,85,0.19,RA,,1.00,WeatherDisplay:10.37,2013-04-12 15:22:00,
2013-04-12 11:27:00,41.3,37.1,29.64,SE,131,3.5,3.5,85,0.20,RA,,1.02,WeatherDisplay:10.37,2013-04-12 15:27:00,
2013-04-12 11:32:00,41.4,37.2,29.64,ESE,113,5.8,5.8,85,0.20,RA,,1.05,WeatherDisplay:10.37,2013-04-12 15:32:00,
2013-04-12 11:37:00,41.5,37.3,29.64,SE,128,4.0,4.0,85,0.21,RA,,1.06,WeatherDisplay:10.37,2013-04-12 15:37:00,
2013-04-12 11:42:00,41.7,37.5,29.63,ESE,114,8.1,8.1,85,0.20,RA,,1.07,WeatherDisplay:10.37,2013-04-12 15:42:00,
2013-04-12 11:47:00,41.9,37.7,29.63,ESE,107,5.8,5.8,85,0.20,RA,,1.08,WeatherDisplay:10.37,2013-04-12 15:47:00,
2013-04-12 11:52:00,42.1,37.9,29.63,ESE,105,11.5,11.5,85,0.20,RA,,1.09,WeatherDisplay:10.37,2013-04-12 15:52:00,
2013-04-12 11:57:00,42.4,38.2,29.62,South,186,10.4,10.4,85,0.17,RA,,1.09,WeatherDisplay:10.37,2013-04-12 15:57:00,
2013-04-12 12:02:00,42.7,38.5,29.63,SSE,151,4.0,4.0,85,0.15,,,1.09,WeatherDisplay:10.37,2013-04-12 16:02:00,
2013-04-12 12:07:00,42.8,38.6,29.62,SE,142,4.0,4.0,85,0.15,RA,,1.10,WeatherDisplay:10.37,2013-04-12 16:07:00,
2013-04-12 12:12:00,42.9,39.0,29.62,SSE,149,6.9,6.9,86,0.13,RA,,1.10,WeatherDisplay:10.37,2013-04-12 16:12:00,
2013-04-12 12:17:00,43.0,39.1,29.62,SE,143,3.5,3.5,86,0.12,,,1.10,WeatherDisplay:10.37,2013-04-12 16:17:00,
2013-04-12 12:22:00,42.9,39.3,29.62,SE,131,9.2,9.2,87,0.10,,,1.10,WeatherDisplay:10.37,2013-04-12 16:22:00,
2013-04-12 12:27:00,43.0,39.4,29.62,SSE,158,4.6,4.6,87,0.08,,,1.10,WeatherDisplay:10.37,2013-04-12 16:27:00,
2013-04-12 12:32:00,43.1,39.5,29.62,SSE,150,5.8,5.8,87,0.07,RA,,1.11,WeatherDisplay:10.37,2013-04-12 16:32:00,
2013-04-12 12:37:00,43.2,39.6,29.62,SSE,167,6.9,6.9,87,0.05,RA,,1.11,WeatherDisplay:10.37,2013-04-12 16:37:00,
2013-04-12 12:42:00,43.3,40.0,29.62,ESE,122,11.5,11.5,88,0.05,,,1.11,WeatherDisplay:10.37,2013-04-12 16:42:00,
2013-04-12 12:47:00,43.3,39.7,29.62,SW,214,6.0,6.0,87,0.03,,,1.11,WeatherDisplay:10.37,2013-04-12 16:47:00,
2013-04-12 12:52:00,43.4,39.8,29.62,South,177,10.0,10.0,87,0.03,RA,,1.12,WeatherDisplay:10.37,2013-04-12 16:52:00,
2013-04-12 12:58:00,43.6,39.7,29.62,SSE,155,3.5,3.5,86,0.03,RA,,1.12,WeatherDisplay:10.37,2013-04-12 16:58:00,
2013-04-12 13:03:00,43.5,39.9,29.62,South,170,5.8,5.8,87,0.03,,,1.12,WeatherDisplay:10.37,2013-04-12 17:03:00,
2013-04-12 13:08:00,43.3,40.0,29.62,South,190,5.8,5.8,88,0.03,RA,,1.13,WeatherDisplay:10.37,2013-04-12 17:08:00,
2013-04-12 13:13:00,43.2,39.6,29.61,SSW,209,6.9,6.9,87,0.03,RA,,1.13,WeatherDisplay:10.37,2013-04-12 17:13:00,
2013-04-12 13:18:00,43.2,39.6,29.61,SE,134,4.6,4.6,87,0.03,,,1.13,WeatherDisplay:10.37,2013-04-12 17:18:00,
2013-04-12 13:23:00,43.3,39.7,29.61,NE,44,5.0,5.0,87,0.03,,,1.13,WeatherDisplay:10.37,2013-04-12 17:23:00,
2013-04-12 13:28:00,43.3,39.4,29.61,ENE,76,6.0,6.0,86,0.03,,,1.13,WeatherDisplay:10.37,2013-04-12 17:28:00,
2013-04-12 13:33:00,43.1,39.5,29.61,ESE,122,6.9,6.9,87,0.02,,,1.13,WeatherDisplay:10.37,2013-04-12 17:33:00,
2013-04-12 13:38:00,43.1,39.5,29.60,ESE,105,3.5,3.5,87,0.02,,,1.13,WeatherDisplay:10.37,2013-04-12 17:38:00,
2013-04-12 13:43:00,43.2,39.3,29.60,SE,145,10.4,10.4,86,0.02,,,1.13,WeatherDisplay:10.37,2013-04-12 17:43:00,
2013-04-12 13:49:00,43.4,39.5,29.60,SE,129,5.8,5.8,86,0.03,RA,,1.14,WeatherDisplay:10.37,2013-04-12 17:49:00,
2013-04-12 13:54:00,43.5,39.6,29.60,SSW,208,8.1,8.1,86,0.02,RA,,1.14,WeatherDisplay:10.37,2013-04-12 17:54:00,
2013-04-12 13:59:00,43.5,39.9,29.60,ESE,109,11.5,11.5,87,0.02,,,1.14,WeatherDisplay:10.37,2013-04-12 17:59:00,
2013-04-12 14:04:00,43.6,39.7,29.60,SSE,160,8.1,8.1,86,0.02,,,1.15,WeatherDisplay:10.37,2013-04-12 18:04:00,
2013-04-12 14:09:00,43.6,39.7,29.60,South,188,3.5,3.5,86,0.02,RA,,1.15,WeatherDisplay:10.37,2013-04-12 18:09:00,
2013-04-12 14:14:00,43.6,39.7,29.60,SE,129,5.0,5.0,86,0.02,RA,,1.15,WeatherDisplay:10.37,2013-04-12 18:14:00,
2013-04-12 14:20:00,43.7,39.8,29.60,SSE,155,5.8,5.8,86,0.02,,,1.15,WeatherDisplay:10.37,2013-04-12 18:20:00,
2013-04-12 14:25:00,43.8,39.9,29.60,SSE,149,6.9,6.9,86,0.02,,,1.15,WeatherDisplay:10.37,2013-04-12 18:25:00,
2013-04-12 15:26:00,47.6,44.2,29.59,East,82,13.0,13.0,88,0.00,,,1.15,WeatherDisplay:10.37,2013-04-12 19:26:00,
2013-04-12 15:27:00,47.6,44.5,29.59,South,181,12.7,12.7,89,0.00,,,1.15,WeatherDisplay:10.37,2013-04-12 19:27:00,
2013-04-12 15:32:00,48.2,44.5,29.60,SSE,163,3.0,3.0,87,0.00,,,1.15,WeatherDisplay:10.37,2013-04-12 19:32:00,
2013-04-12 15:37:00,48.5,45.4,29.60,ESE,114,3.5,3.5,89,0.00,,,1.15,WeatherDisplay:10.37,2013-04-12 19:37:00,
2013-04-12 15:42:00,48.7,45.9,29.60,East,89,6.9,6.9,90,0.00,,,1.15,WeatherDisplay:10.37,2013-04-12 19:42:00,
2013-04-12 15:47:00,48.9,46.1,29.60,SW,215,10.4,10.4,90,0.00,,,1.15,WeatherDisplay:10.37,2013-04-12 19:47:00,
2013-04-12 15:53:00,49.2,46.4,29.61,ESE,111,4.0,4.0,90,0.00,,,1.15,WeatherDisplay:10.37,2013-04-12 19:53:00,
2013-04-12 15:58:00,49.3,46.5,29.61,South,183,2.3,2.3,90,0.00,,,1.15,WeatherDisplay:10.37,2013-04-12 19:58:00,
2013-04-12 16:03:00,49.3,46.5,29.61,SSE,148,3.5,3.5,90,0.00,,,1.15,WeatherDisplay:10.37,2013-04-12 20:03:00,
2013-04-12 16:08:00,49.3,46.5,29.61,SW,233,3.5,3.5,90,0.00,,,1.15,WeatherDisplay:10.37,2013-04-12 20:08:00,
2013-04-12 16:13:00,49.2,46.4,29.62,SSE,159,0.0,0.6,90,0.00,,,1.15,WeatherDisplay:10.37,2013-04-12 20:13:00,
2013-04-12 16:18:00,49.0,46.2,29.62,SSE,162,2.3,2.3,90,0.00,,,1.15,WeatherDisplay:10.37,2013-04-12 20:18:00,
2013-04-12 16:23:00,48.9,46.1,29.63,WSW,250,3.5,3.5,90,0.00,,,1.15,WeatherDisplay:10.37,2013-04-12 20:23:00,
2013-04-12 16:28:00,48.9,46.1,29.64,WSW,242,3.0,3.0,90,0.00,,,1.15,WeatherDisplay:10.37,2013-04-12 20:28:00,
2013-04-12 16:33:00,48.5,45.7,29.65,WSW,240,2.3,2.3,90,0.00,,,1.15,WeatherDisplay:10.37,2013-04-12 20:33:00,
2013-04-12 16:38:00,48.2,45.4,29.65,SSE,159,1.1,1.1,90,0.01,RA,,1.16,WeatherDisplay:10.37,2013-04-12 20:38:00,
2013-04-12 16:43:00,48.0,44.9,29.65,NW,314,0.0,0.0,89,0.02,RA,,1.17,WeatherDisplay:10.37,2013-04-12 20:43:00,
2013-04-12 16:48:00,47.9,44.5,29.65,ESE,108,0.0,0.0,88,0.02,RA,,1.17,WeatherDisplay:10.37,2013-04-12 20:48:00,
2013-04-12 16:53:00,47.9,44.2,29.65,ESE,108,0.0,0.0,87,0.02,,,1.17,WeatherDisplay:10.37,2013-04-12 20:53:00,
2013-04-12 16:58:00,48.0,44.0,29.65,SE,134,0.0,0.0,86,0.02,,,1.17,WeatherDisplay:10.37,2013-04-12 20:58:00,
2013-04-12 17:03:00,47.9,43.9,29.66,SE,134,0.0,0.0,86,0.02,,,1.17,WeatherDisplay:10.37,2013-04-12 21:03:00,
2013-04-12 17:08:00,47.9,43.9,29.66,SE,134,0.0,0.0,86,0.02,,,1.17,WeatherDisplay:10.37,2013-04-12 21:08:00,
2013-04-12 17:13:00,47.9,43.6,29.66,SE,134,0.0,0.0,85,0.02,,,1.17,WeatherDisplay:10.37,2013-04-12 21:13:00,
2013-04-12 17:18:00,47.9,43.6,29.66,SE,134,0.0,0.0,85,0.02,,,1.17,WeatherDisplay:10.37,2013-04-12 21:18:00,
2013-04-12 17:23:00,48.1,44.7,29.67,SW,231,3.5,3.5,88,0.02,,,1.17,WeatherDisplay:10.37,2013-04-12 21:23:00,
2013-04-12 17:28:00,48.4,45.6,29.67,SW,236,2.3,2.3,90,0.02,,,1.17,WeatherDisplay:10.37,2013-04-12 21:28:00,
2013-04-12 17:33:00,48.5,45.7,29.67,North,6,2.3,2.3,90,0.02,,,1.17,WeatherDisplay:10.37,2013-04-12 21:33:00,
2013-04-12 17:38:00,48.5,45.7,29.68,East,96,0.0,0.0,90,0.01,,,1.17,WeatherDisplay:10.37,2013-04-12 21:38:00,
2013-04-12 17:43:00,48.5,45.7,29.68,NNE,23,1.1,1.1,90,0.00,,,1.17,WeatherDisplay:10.37,2013-04-12 21:43:00,
2013-04-12 17:48:00,48.6,45.8,29.69,West,269,3.5,3.5,90,0.00,,,1.17,WeatherDisplay:10.37,2013-04-12 21:48:00,
2013-04-12 17:53:00,48.7,45.9,29.69,SE,141,3.5,3.5,90,0.00,,,1.17,WeatherDisplay:10.37,2013-04-12 21:53:00,
2013-04-12 17:58:00,48.7,45.9,29.69,SW,226,0.0,0.0,90,0.00,,,1.17,WeatherDisplay:10.37,2013-04-12 21:58:00,
2013-04-12 18:03:00,48.6,45.8,29.69,SW,226,0.0,0.0,90,0.00,,,1.17,WeatherDisplay:10.37,2013-04-12 22:03:00,
2013-04-12 18:08:00,48.3,45.2,29.69,WNW,288,1.1,0.0,89,0.00,,,1.17,WeatherDisplay:10.37,2013-04-12 22:08:00,
2013-04-12 18:13:00,48.2,44.2,29.69,WSW,253,6.9,6.9,86,0.00,,,1.17,WeatherDisplay:10.37,2013-04-12 22:13:00,
2013-04-12 18:18:00,48.2,44.5,29.69,NW,304,5.8,5.8,87,0.00,,,1.17,WeatherDisplay:10.37,2013-04-12 22:18:00,
2013-04-12 18:23:00,48.3,43.4,29.69,NW,314,6.9,6.9,83,0.00,,,1.17,WeatherDisplay:10.37,2013-04-12 22:23:00,
2013-04-12 18:28:00,48.2,44.2,29.69,WNW,291,2.3,2.3,86,0.00,,,1.17,WeatherDisplay:10.37,2013-04-12 22:28:00,
2013-04-12 18:33:00,47.8,44.4,29.69,WNW,297,3.5,3.5,88,0.00,,,1.17,WeatherDisplay:10.37,2013-04-12 22:33:00,
2013-04-12 18:38:00,47.8,44.1,29.70,West,262,10.4,10.4,87,0.00,,,1.17,WeatherDisplay:10.37,2013-04-12 22:38:00,
2013-04-12 18:43:00,48.0,43.4,29.70,SSW,201,4.6,4.6,84,0.01,RA,,1.18,WeatherDisplay:10.37,2013-04-12 22:43:00,
2013-04-12 18:48:00,47.8,43.8,29.70,WNW,287,3.0,3.0,86,0.01,RA,,1.18,WeatherDisplay:10.37,2013-04-12 22:48:00,
2013-04-12 18:53:00,47.6,43.0,29.71,NNE,29,11.5,11.5,84,0.01,,,1.18,WeatherDisplay:10.37,2013-04-12 22:53:00,
2013-04-12 18:58:00,47.7,43.4,29.71,ENE,63,6.9,6.9,85,0.01,,,1.18,WeatherDisplay:10.37,2013-04-12 22:58:00,
2013-04-12 19:03:00,47.5,43.2,29.71,SW,227,4.6,4.6,85,0.01,,,1.18,WeatherDisplay:10.37,2013-04-12 23:03:00,
2013-04-12 19:08:00,47.5,43.2,29.71,SSW,203,4.6,4.6,85,0.01,,,1.18,WeatherDisplay:10.37,2013-04-12 23:08:00,
2013-04-12 19:13:00,47.1,42.8,29.72,SW,219,2.3,2.3,85,0.01,,,1.18,WeatherDisplay:10.37,2013-04-12 23:13:00,
2013-04-12 19:18:00,46.9,42.9,29.72,WSW,249,3.5,3.5,86,0.01,,,1.18,WeatherDisplay:10.37,2013-04-12 23:18:00,
2013-04-12 19:23:00,46.8,42.5,29.73,SSW,205,0.0,0.0,85,0.01,,,1.18,WeatherDisplay:10.37,2013-04-12 23:23:00,
2013-04-12 19:28:00,46.5,42.8,29.73,ESE,112,2.3,2.3,87,0.01,,,1.18,WeatherDisplay:10.37,2013-04-12 23:28:00,
2013-04-12 19:33:00,46.2,41.9,29.73,West,262,3.5,3.5,85,0.01,,,1.18,WeatherDisplay:10.37,2013-04-12 23:33:00,
2013-04-12 19:38:00,46.0,41.7,29.73,West,259,4.6,4.6,85,0.01,,,1.18,WeatherDisplay:10.37,2013-04-12 23:38:00,
2013-04-12 19:44:00,45.8,41.9,29.73,SE,134,1.1,0.0,86,0.00,,,1.18,WeatherDisplay:10.37,2013-04-12 23:44:00,
2013-04-12 19:49:00,45.4,41.8,29.73,ESE,103,3.5,3.5,87,0.00,,,1.18,WeatherDisplay:10.37,2013-04-12 23:49:00,
2013-04-12 19:54:00,45.1,41.8,29.74,West,264,2.3,2.3,88,0.00,,,1.18,WeatherDisplay:10.37,2013-04-12 23:54:00,
2013-04-12 19:59:00,44.7,41.4,29.74,SSW,208,3.5,3.5,88,0.00,,,1.18,WeatherDisplay:10.37,2013-04-12 23:59:00,
2013-04-12 20:04:00,44.7,41.4,29.74,NW,309,2.3,2.3,88,0.00,,,1.18,WeatherDisplay:10.37,2013-04-13 00:04:00,
2013-04-12 20:09:00,44.6,41.3,29.74,ENE,72,2.3,2.6,88,0.00,,,1.18,WeatherDisplay:10.37,2013-04-13 00:09:00,
2013-04-12 20:14:00,44.9,41.0,29.74,SE,135,4.6,4.6,86,0.00,,,1.18,WeatherDisplay:10.37,2013-04-13 00:14:00,
2013-04-12 20:19:00,44.9,40.7,29.74,SSW,204,4.6,4.6,85,0.00,,,1.18,WeatherDisplay:10.37,2013-04-13 00:19:00,
2013-04-12 20:24:00,44.7,40.8,29.74,NNW,334,6.9,6.9,86,0.00,,,1.18,WeatherDisplay:10.37,2013-04-13 00:24:00,
2013-04-12 20:29:00,44.6,40.7,29.75,West,272,2.0,2.0,86,0.00,,,1.18,WeatherDisplay:10.37,2013-04-13 00:29:00,
2013-04-12 20:34:00,44.7,40.8,29.75,North,349,2.3,2.3,86,0.00,,,1.18,WeatherDisplay:10.37,2013-04-13 00:34:00,
2013-04-12 20:39:00,44.5,40.9,29.75,SW,224,2.3,0.0,87,0.00,,,1.18,WeatherDisplay:10.37,2013-04-13 00:39:00,
2013-04-12 20:44:00,44.4,40.8,29.76,ESE,122,1.1,1.1,87,0.00,,,1.18,WeatherDisplay:10.37,2013-04-13 00:44:00,
2013-04-12 20:49:00,44.4,40.5,29.76,West,281,9.2,9.2,86,0.00,,,1.18,WeatherDisplay:10.37,2013-04-13 00:49:00,
2013-04-12 20:54:00,44.3,39.8,29.76,West,264,11.0,11.0,84,0.00,,,1.18,WeatherDisplay:10.37,2013-04-13 00:54:00,
2013-04-12 20:59:00,44.1,39.9,29.77,WSW,243,11.5,11.5,85,0.00,,,1.18,WeatherDisplay:10.37,2013-04-13 00:59:00,
2013-04-12 21:04:00,43.8,39.6,29.77,West,263,11.5,11.5,85,0.00,,,1.18,WeatherDisplay:10.37,2013-04-13 01:04:00,
2013-04-12 21:09:00,43.7,40.1,29.77,NW,311,3.5,3.5,87,0.00,,,1.18,WeatherDisplay:10.37,2013-04-13 01:09:00,
2013-04-12 21:14:00,43.5,39.3,29.78,SW,235,5.8,5.8,85,0.00,,,1.18,WeatherDisplay:10.37,2013-04-13 01:14:00,
2013-04-12 21:19:00,43.3,39.4,29.78,SW,222,3.5,3.5,86,0.00,,,1.18,WeatherDisplay:10.37,2013-04-13 01:19:00,
2013-04-12 21:24:00,43.1,39.2,29.79,SW,219,8.1,8.1,86,0.00,,,1.18,WeatherDisplay:10.37,2013-04-13 01:24:00,
2013-04-12 21:29:00,43.1,38.9,29.79,WNW,298,17.3,17.3,85,0.00,,,1.18,WeatherDisplay:10.37,2013-04-13 01:29:00,
2013-04-12 21:34:00,42.9,38.7,29.80,SW,224,10.4,10.4,85,0.00,,,1.18,WeatherDisplay:10.37,2013-04-13 01:34:00,
2013-04-12 21:39:00,42.8,38.6,29.80,West,279,7.0,7.0,85,0.00,,,1.18,WeatherDisplay:10.37,2013-04-13 01:39:00,
2013-04-12 21:44:00,42.6,37.8,29.79,West,264,11.5,11.5,83,0.00,,,1.18,WeatherDisplay:10.37,2013-04-13 01:44:00,
2013-04-12 21:49:00,42.4,37.3,29.79,WNW,283,5.8,5.8,82,0.00,,,1.18,WeatherDisplay:10.37,2013-04-13 01:49:00,
2013-04-12 21:54:00,42.3,37.8,29.80,WSW,245,3.5,3.5,84,0.00,,,1.18,WeatherDisplay:10.37,2013-04-13 01:54:00,
2013-04-12 21:59:00,42.1,37.3,29.79,West,266,10.4,10.4,83,0.00,,,1.18,WeatherDisplay:10.37,2013-04-13 01:59:00,
2013-04-12 22:04:00,42.0,36.6,29.79,WNW,291,12.7,12.7,81,0.00,,,1.18,WeatherDisplay:10.37,2013-04-13 02:04:00,
2013-04-12 22:10:00,41.8,37.0,29.80,West,275,10.4,10.4,83,0.00,,,1.18,WeatherDisplay:10.37,2013-04-13 02:10:00,
2013-04-12 22:15:00,41.7,36.9,29.80,WSW,242,3.5,3.5,83,0.00,,,1.18,WeatherDisplay:10.37,2013-04-13 02:15:00,
2013-04-12 22:20:00,41.7,36.6,29.80,WSW,240,8.1,8.1,82,0.00,,,1.18,WeatherDisplay:10.37,2013-04-13 02:20:00,
2013-04-12 22:25:00,41.6,36.5,29.80,WSW,253,4.6,4.6,82,0.00,,,1.18,WeatherDisplay:10.37,2013-04-13 02:25:00,
2013-04-12 22:30:00,41.5,36.4,29.80,WSW,252,4.6,4.6,82,0.00,,,1.18,WeatherDisplay:10.37,2013-04-13 02:30:00,
2013-04-12 22:35:00,41.4,36.6,29.81,West,271,3.5,3.5,83,0.00,,,1.18,WeatherDisplay:10.37,2013-04-13 02:35:00,
2013-04-12 22:40:00,41.2,36.7,29.80,WSW,258,2.3,0.0,84,0.00,,,1.18,WeatherDisplay:10.37,2013-04-13 02:40:00,
2013-04-12 22:45:00,41.1,36.9,29.80,NW,325,3.5,3.5,85,0.00,,,1.18,WeatherDisplay:10.37,2013-04-13 02:45:00,
2013-04-12 22:50:00,41.1,36.3,29.79,North,8,4.0,4.0,83,0.00,,,1.18,WeatherDisplay:10.37,2013-04-13 02:50:00,
2013-04-12 22:55:00,41.1,36.3,29.79,West,260,3.5,3.5,83,0.00,,,1.18,WeatherDisplay:10.37,2013-04-13 02:55:00,
2013-04-12 23:00:00,41.1,36.3,29.79,SSW,202,3.5,3.5,83,0.00,,,1.18,WeatherDisplay:10.37,2013-04-13 03:00:00,
2013-04-12 23:05:00,40.9,36.1,29.79,SW,225,2.3,2.3,83,0.00,,,1.18,WeatherDisplay:10.37,2013-04-13 03:05:00,
2013-04-12 23:10:00,40.7,35.9,29.79,SW,233,4.6,4.6,83,0.00,,,1.18,WeatherDisplay:10.37,2013-04-13 03:10:00,
2013-04-12 23:15:00,40.5,36.0,29.79,WNW,302,2.3,2.3,84,0.00,,,1.18,WeatherDisplay:10.37,2013-04-13 03:15:00,
2013-04-12 23:20:00,40.4,35.6,29.79,WNW,284,3.5,3.5,83,0.00,,,1.18,WeatherDisplay:10.37,2013-04-13 03:20:00,
2013-04-12 23:25:00,40.3,36.1,29.79,SSW,204,1.1,1.1,85,0.00,,,1.18,WeatherDisplay:10.37,2013-04-13 03:25:00,
2013-04-12 23:30:00,40.0,35.6,29.79,SE,132,4.6,4.6,84,0.00,,,1.18,WeatherDisplay:10.37,2013-04-13 03:30:00,
2013-04-12 23:35:00,39.9,35.8,29.79,West,276,0.0,0.6,85,0.00,,,1.18,WeatherDisplay:10.37,2013-04-13 03:35:00,
2013-04-12 23:40:00,39.7,35.3,29.79,SSW,211,2.3,2.3,84,0.00,,,1.18,WeatherDisplay:10.37,2013-04-13 03:40:00,
2013-04-12 23:45:00,39.5,35.4,29.80,WSW,252,1.1,0.0,85,0.00,,,1.18,WeatherDisplay:10.37,2013-04-13 03:45:00,
2013-04-12 23:50:00,39.3,35.2,29.79,ESE,122,0.0,0.2,85,0.00,,,1.18,WeatherDisplay:10.37,2013-04-13 03:50:00,
2013-04-12 23:55:00,39.2,35.1,29.79,SSW,200,1.1,1.1,85,0.00,,,1.18,WeatherDisplay:10.37,2013-04-13 03:55:00,